createdAt,value
2017-08-10T00:01:19.636Z,0.20
2017-08-10T00:03:47.671Z,0.20
2017-08-10T00:06:15.695Z,0.20
2017-08-10T00:08:43.719Z,0.30
2017-08-10T00:11:12.560Z,0.30
2017-08-10T00:13:40.580Z,0.30
2017-08-10T00:16:09.512Z,0.20
2017-08-10T00:18:37.556Z,0.30
2017-08-10T00:21:05.584Z,0.30
2017-08-10T00:23:34.548Z,0.30
2017-08-10T00:26:02.576Z,0.30
2017-08-10T00:28:31.608Z,0.30
2017-08-10T00:30:59.639Z,0.30
2017-08-10T00:33:28.680Z,0.30
2017-08-10T00:35:58.691Z,0.20
2017-08-10T00:38:27.695Z,0.30
2017-08-10T00:40:55.711Z,0.30
2017-08-10T00:43:24.739Z,0.20
2017-08-10T00:45:52.775Z,0.30
2017-08-10T00:48:21.808Z,0.30
2017-08-10T00:50:53.483Z,0.30
2017-08-10T00:53:22.447Z,0.30
2017-08-10T00:55:50.492Z,0.30
2017-08-10T00:58:18.519Z,0.20
2017-08-10T01:00:47.311Z,0.30
2017-08-10T01:03:16.099Z,0.20
2017-08-10T01:05:44.156Z,0.30
2017-08-10T01:08:12.948Z,0.27
2017-08-10T01:10:41.919Z,0.20
2017-08-10T01:13:11.851Z,0.20
2017-08-10T01:15:40.771Z,0.30
2017-08-10T01:18:08.783Z,0.30
2017-08-10T01:20:36.807Z,0.30
2017-08-10T01:23:04.831Z,12.70
2017-08-10T01:25:32.857Z,0.20
2017-08-10T01:28:00.895Z,0.20
2017-08-10T01:30:32.519Z,0.30
2017-08-10T01:33:00.551Z,0.20
2017-08-10T01:35:28.563Z,0.30
2017-08-10T01:37:56.583Z,0.30
2017-08-10T01:40:24.623Z,0.40
2017-08-10T01:42:54.603Z,0.30
2017-08-10T01:45:23.527Z,0.20
2017-08-10T01:47:52.452Z,0.20
2017-08-10T01:50:20.479Z,0.30
2017-08-10T01:52:48.499Z,0.60
2017-08-10T01:55:17.551Z,0.30
2017-08-10T01:57:46.326Z,0.30
2017-08-10T02:00:14.359Z,0.30
2017-08-10T02:02:44.295Z,0.20
2017-08-10T02:05:13.307Z,0.20
2017-08-10T02:07:45.166Z,0.20
2017-08-10T02:10:13.954Z,0.20
2017-08-10T02:12:43.963Z,0.30
2017-08-10T02:15:12.966Z,0.30
2017-08-10T02:17:41.759Z,0.30
2017-08-10T02:20:14.638Z,0.30
2017-08-10T02:22:42.654Z,0.30
2017-08-10T02:25:22.518Z,0.27
2017-08-10T02:27:53.271Z,0.30
2017-08-10T02:30:27.995Z,0.30
2017-08-10T02:32:56.022Z,0.30
2017-08-10T02:35:24.039Z,0.20
2017-08-10T02:37:52.070Z,0.20
2017-08-10T02:40:21.005Z,0.20
2017-08-10T02:42:51.010Z,0.20
2017-08-10T02:45:19.042Z,0.20
2017-08-10T02:47:48.074Z,0.30
2017-08-10T02:50:16.098Z,0.30
2017-08-10T02:52:44.150Z,0.20
2017-08-10T02:55:12.178Z,0.30
2017-08-10T02:57:42.218Z,0.20
2017-08-10T03:00:11.025Z,0.30
2017-08-10T03:02:42.034Z,0.57
2017-08-10T03:05:10.066Z,0.30
2017-08-10T03:07:38.090Z,0.30
2017-08-10T03:10:06.878Z,0.30
2017-08-10T03:12:36.691Z,2.30
2017-08-10T03:15:10.418Z,1.43
2017-08-10T03:17:38.469Z,0.20
2017-08-10T03:20:07.266Z,0.20
2017-08-10T03:22:36.046Z,0.30
2017-08-10T03:25:04.093Z,0.30
2017-08-10T03:27:33.085Z,0.20
2017-08-10T03:30:01.106Z,0.20
2017-08-10T03:32:29.161Z,0.30
2017-08-10T03:34:57.197Z,0.30
2017-08-10T03:37:25.221Z,0.30
2017-08-10T03:39:53.242Z,0.30
2017-08-10T03:42:21.269Z,0.30
2017-08-10T03:44:51.217Z,0.20
2017-08-10T03:47:20.137Z,0.20
2017-08-10T03:49:48.196Z,0.30
2017-08-10T03:52:20.054Z,0.50
2017-08-10T03:54:48.849Z,0.20
2017-08-10T03:57:19.617Z,0.30
2017-08-10T03:59:47.641Z,0.20
2017-08-10T04:02:15.669Z,0.23
2017-08-10T04:04:44.706Z,0.30
2017-08-10T04:07:13.501Z,0.27
2017-08-10T04:09:42.289Z,0.30
2017-08-10T04:12:11.100Z,0.30
2017-08-10T04:14:42.505Z,0.20
2017-08-10T04:17:10.541Z,0.23
2017-08-10T04:19:38.561Z,0.23
2017-08-10T04:22:07.493Z,0.30
2017-08-10T04:24:36.426Z,0.30
2017-08-10T04:27:04.445Z,0.30
2017-08-10T04:29:32.481Z,0.30
2017-08-10T04:32:01.473Z,0.20
2017-08-10T04:34:29.500Z,0.20
2017-08-10T04:36:58.528Z,0.30
2017-08-10T04:39:26.557Z,0.30
2017-08-10T04:41:54.584Z,0.20
2017-08-10T04:44:24.373Z,0.30
2017-08-10T04:46:54.440Z,0.20
2017-08-10T04:49:23.388Z,0.20
2017-08-10T04:51:51.416Z,0.87
2017-08-10T04:54:20.493Z,0.20
2017-08-10T04:56:51.325Z,0.30
2017-08-10T04:59:19.358Z,0.30
2017-08-10T05:01:47.400Z,0.70
2017-08-10T05:04:17.325Z,0.30
2017-08-10T05:06:45.361Z,0.63
2017-08-10T05:09:13.388Z,0.30
2017-08-10T05:11:41.416Z,0.30
2017-08-10T05:14:13.128Z,0.30
2017-08-10T05:16:41.141Z,0.63
2017-08-10T05:19:09.164Z,0.27
2017-08-10T05:21:37.214Z,0.30
2017-08-10T05:24:05.248Z,0.57
2017-08-10T05:26:33.265Z,0.30
2017-08-10T05:29:01.317Z,0.30
2017-08-10T05:31:30.323Z,0.30
2017-08-10T05:33:58.341Z,0.30
2017-08-10T05:36:26.383Z,0.20
2017-08-10T05:38:54.408Z,0.20
2017-08-10T05:41:22.440Z,0.30
2017-08-10T05:43:50.488Z,0.30
2017-08-10T05:46:18.504Z,0.30
2017-08-10T05:48:46.527Z,0.23
2017-08-10T05:51:16.392Z,0.40
2017-08-10T05:53:44.424Z,0.30
2017-08-10T05:56:12.436Z,0.30
2017-08-10T05:58:40.480Z,0.20
2017-08-10T06:01:09.444Z,0.30
2017-08-10T06:03:37.464Z,0.30
2017-08-10T06:06:05.500Z,0.63
2017-08-10T06:08:33.523Z,0.30
2017-08-10T06:11:01.548Z,0.30
2017-08-10T06:13:29.572Z,0.50
2017-08-10T06:15:57.592Z,0.30
2017-08-10T06:18:25.612Z,0.30
2017-08-10T06:20:53.652Z,0.30
2017-08-10T06:23:21.680Z,0.30
2017-08-10T06:25:50.468Z,0.20
2017-08-10T06:28:20.404Z,0.37
2017-08-10T06:30:48.428Z,0.30
2017-08-10T06:33:16.456Z,0.30
2017-08-10T06:35:44.510Z,0.30
2017-08-10T06:38:12.524Z,0.30
2017-08-10T06:40:41.460Z,0.33
2017-08-10T06:43:09.488Z,0.30
2017-08-10T06:45:37.560Z,0.30
2017-08-10T06:48:06.612Z,0.40
2017-08-10T06:50:35.685Z,0.30
2017-08-10T06:53:03.712Z,0.37
2017-08-10T06:55:32.712Z,0.30
2017-08-10T06:58:00.764Z,0.30
2017-08-10T07:00:28.780Z,0.30
2017-08-10T07:02:59.489Z,0.30
2017-08-10T07:05:27.531Z,0.30
2017-08-10T07:07:56.536Z,1.00
2017-08-10T07:10:24.555Z,0.50
2017-08-10T07:12:52.607Z,0.40
2017-08-10T07:15:20.628Z,0.30
2017-08-10T07:17:51.803Z,0.50
2017-08-10T07:20:20.791Z,0.40
2017-08-10T07:22:48.803Z,0.40
2017-08-10T07:25:16.832Z,0.40
2017-08-10T07:27:48.487Z,0.63
2017-08-10T07:30:17.420Z,0.40
2017-08-10T07:32:45.451Z,0.40
2017-08-10T07:35:13.475Z,0.40
2017-08-10T07:37:41.527Z,0.30
2017-08-10T07:40:10.480Z,0.30
2017-08-10T07:42:40.495Z,0.40
2017-08-10T07:45:11.755Z,0.40
2017-08-10T07:47:40.728Z,1.13
2017-08-10T07:50:10.756Z,0.40
2017-08-10T07:52:39.776Z,3.53
2017-08-10T07:55:08.543Z,0.30
2017-08-10T07:57:38.554Z,0.30
2017-08-10T08:00:06.599Z,0.40
2017-08-10T08:02:34.615Z,0.40
2017-08-10T08:05:03.403Z,0.40
2017-08-10T08:07:32.204Z,0.40
2017-08-10T08:10:00.223Z,0.40
2017-08-10T08:12:33.008Z,0.30
2017-08-10T08:15:01.023Z,0.40
2017-08-10T08:17:29.967Z,0.40
2017-08-10T08:20:00.003Z,0.33
2017-08-10T08:22:28.007Z,0.50
2017-08-10T08:24:56.019Z,0.30
2017-08-10T08:27:24.055Z,0.60
2017-08-10T08:29:52.072Z,0.40
2017-08-10T08:32:20.083Z,0.40
2017-08-10T08:34:49.034Z,0.60
2017-08-10T08:37:18.015Z,0.43
2017-08-10T08:39:46.031Z,0.30
2017-08-10T08:42:14.081Z,0.40
2017-08-10T08:44:44.788Z,0.40
2017-08-10T08:47:13.779Z,0.30
2017-08-10T08:49:42.775Z,0.40
2017-08-10T08:52:11.767Z,0.40
2017-08-10T08:54:40.170Z,0.50
2017-08-10T08:57:08.140Z,0.40
2017-08-10T08:59:37.822Z,0.40
2017-08-10T09:02:05.851Z,1.60
2017-08-10T09:04:37.439Z,0.40
2017-08-10T09:07:06.455Z,0.40
2017-08-10T09:09:38.651Z,0.43
2017-08-10T09:12:06.691Z,0.40
2017-08-10T09:14:35.655Z,0.40
2017-08-10T09:17:03.671Z,0.30
2017-08-10T09:19:33.450Z,8.43
2017-08-10T09:22:02.436Z,7.90
2017-08-10T09:24:30.434Z,8.40
2017-08-10T09:26:59.225Z,7.07
2017-08-10T09:29:28.018Z,8.80
2017-08-10T09:31:56.046Z,7.60
2017-08-10T09:34:27.806Z,7.77
2017-08-10T09:36:56.802Z,7.63
2017-08-10T09:39:28.267Z,7.23
2017-08-10T09:41:56.281Z,9.00
2017-08-10T09:44:24.302Z,8.77
2017-08-10T09:46:52.330Z,8.90
2017-08-10T09:49:20.346Z,9.50
2017-08-10T09:51:48.362Z,9.40
2017-08-10T09:54:16.390Z,8.20
2017-08-10T09:56:44.406Z,8.70
2017-08-10T09:59:12.418Z,9.40
2017-08-10T10:01:40.454Z,8.90
2017-08-10T10:04:09.466Z,10.20
2017-08-10T10:06:37.505Z,9.90
2017-08-10T10:09:05.545Z,9.73
2017-08-10T10:11:36.241Z,11.50
2017-08-10T10:14:04.266Z,12.90
2017-08-10T10:16:33.214Z,12.00
2017-08-10T10:19:01.245Z,12.07
2017-08-10T10:21:29.262Z,12.17
2017-08-10T10:23:58.270Z,11.60
2017-08-10T10:26:26.314Z,11.93
2017-08-10T10:28:54.337Z,13.23
2017-08-10T10:31:22.381Z,12.67
2017-08-10T10:33:50.417Z,12.83
2017-08-10T10:36:19.422Z,12.03
2017-08-10T10:38:47.449Z,12.50
2017-08-10T10:41:15.469Z,13.40
2017-08-10T10:43:44.262Z,14.83
2017-08-10T10:46:13.973Z,14.30
2017-08-10T10:48:42.771Z,14.57
2017-08-10T10:51:10.794Z,14.53
2017-08-10T10:53:39.833Z,14.37
2017-08-10T10:56:07.869Z,13.43
2017-08-10T10:58:35.902Z,12.57
2017-08-10T11:01:04.853Z,13.10
2017-08-10T11:03:33.653Z,14.90
2017-08-10T11:06:01.685Z,13.53
2017-08-10T11:08:30.705Z,13.50
2017-08-10T11:10:58.733Z,13.20
2017-08-10T11:13:26.786Z,14.13
2017-08-10T11:15:54.797Z,13.27
2017-08-10T11:18:22.825Z,13.83
2017-08-10T11:20:50.849Z,15.07
2017-08-10T11:23:19.662Z,15.03
2017-08-10T11:25:47.689Z,14.07
2017-08-10T11:28:15.716Z,16.47
2017-08-10T11:30:44.697Z,14.90
2017-08-10T11:33:12.736Z,14.07
2017-08-10T11:35:42.545Z,13.50
2017-08-10T11:38:11.565Z,14.27
2017-08-10T11:40:39.601Z,14.33
2017-08-10T11:43:10.988Z,13.00
2017-08-10T11:45:39.017Z,12.67
2017-08-10T11:48:07.054Z,13.70
2017-08-10T11:50:38.860Z,13.10
2017-08-10T11:53:08.657Z,12.90
2017-08-10T11:55:36.693Z,14.40
2017-08-10T11:58:04.761Z,12.20
2017-08-10T12:00:32.781Z,13.40
2017-08-10T12:03:02.793Z,11.93
2017-08-10T12:05:32.632Z,13.87
2017-08-10T12:08:00.680Z,12.80
2017-08-10T12:10:29.476Z,12.10
2017-08-10T12:12:57.505Z,13.30
2017-08-10T12:15:25.544Z,14.57
2017-08-10T12:17:55.505Z,13.33
2017-08-10T12:20:23.568Z,14.30
2017-08-10T12:22:53.604Z,13.90
2017-08-10T12:25:22.609Z,13.50
2017-08-10T12:27:56.697Z,13.67
2017-08-10T12:30:24.713Z,13.40
2017-08-10T12:32:52.741Z,12.97
2017-08-10T12:35:24.604Z,13.70
2017-08-10T12:37:52.637Z,13.67
2017-08-10T12:40:20.649Z,12.83
2017-08-10T12:42:49.485Z,14.10
2017-08-10T12:45:17.512Z,13.23
2017-08-10T12:47:46.332Z,13.90
2017-08-10T12:50:15.316Z,12.60
2017-08-10T12:52:43.369Z,12.60
2017-08-10T12:55:12.164Z,12.83
2017-08-10T12:57:41.171Z,14.17
2017-08-10T13:00:09.217Z,14.10
2017-08-10T13:02:37.241Z,13.90
2017-08-10T13:05:06.388Z,14.47
2017-08-10T13:07:34.412Z,13.80
2017-08-10T13:10:02.465Z,15.30
2017-08-10T13:12:30.500Z,14.37
2017-08-10T13:14:59.300Z,12.63
2017-08-10T13:17:27.344Z,13.50
2017-08-10T13:19:55.410Z,13.17
2017-08-10T13:22:23.436Z,14.70
2017-08-10T13:24:51.464Z,13.47
2017-08-10T13:27:24.103Z,14.60
2017-08-10T13:29:52.140Z,14.53
2017-08-10T13:32:20.176Z,14.80
2017-08-10T13:34:48.996Z,13.70
2017-08-10T13:37:17.044Z,15.23
2017-08-10T13:39:45.849Z,15.10
2017-08-10T13:42:13.904Z,16.43
2017-08-10T13:47:23.664Z,14.83
2017-08-10T13:49:53.364Z,16.67
2017-08-10T13:52:22.156Z,15.93
2017-08-10T13:54:50.952Z,15.43
2017-08-10T13:57:20.680Z,14.63
2017-08-10T13:59:48.708Z,16.43
2017-08-10T14:02:16.756Z,15.20
2017-08-10T14:04:44.792Z,17.17
2017-08-10T14:07:12.807Z,15.83
2017-08-10T14:09:41.835Z,17.33
2017-08-10T14:12:10.632Z,17.00
2017-08-10T14:14:39.579Z,16.03
2017-08-10T14:17:10.212Z,15.33
2017-08-10T14:19:38.228Z,16.50
2017-08-10T14:22:06.280Z,16.20
2017-08-10T14:24:34.312Z,15.23
2017-08-10T14:27:08.815Z,15.93
2017-08-10T14:29:36.879Z,14.10
2017-08-10T14:32:05.911Z,16.20
2017-08-10T14:34:33.931Z,15.67
2017-08-10T14:37:01.991Z,15.97
2017-08-10T14:39:30.027Z,17.30
2017-08-10T14:41:58.055Z,15.53
2017-08-10T14:44:28.209Z,17.27
2017-08-10T14:46:56.220Z,18.43
2017-08-10T14:49:24.249Z,17.47
2017-08-10T14:51:53.548Z,19.90
2017-08-10T14:54:24.803Z,19.20
2017-08-10T14:56:52.843Z,19.60
2017-08-10T14:59:20.859Z,19.43
2017-08-10T15:01:48.895Z,18.80
2017-08-10T15:04:16.943Z,18.73
2017-08-10T15:06:45.974Z,17.87
2017-08-10T15:09:13.991Z,18.00
2017-08-10T15:11:42.043Z,18.90
2017-08-10T15:14:10.991Z,20.23
2017-08-10T15:16:39.019Z,19.87
2017-08-10T15:19:07.059Z,20.30
2017-08-10T15:21:36.739Z,22.50
2017-08-10T15:24:04.765Z,20.37
2017-08-10T15:26:32.791Z,22.27
2017-08-10T15:29:01.768Z,22.10
2017-08-10T15:31:30.759Z,21.80
2017-08-10T15:33:58.802Z,21.77
2017-08-10T15:36:26.823Z,23.43
2017-08-10T15:38:54.851Z,23.67
2017-08-10T15:41:27.563Z,21.83
2017-08-10T15:43:56.367Z,22.90
2017-08-10T15:46:25.330Z,23.63
2017-08-10T15:48:54.354Z,24.50
2017-08-10T15:51:25.463Z,22.97
2017-08-10T15:53:54.390Z,24.87
2017-08-10T15:56:23.183Z,21.80
2017-08-10T15:58:51.290Z,20.70
2017-08-10T16:01:19.310Z,23.10
2017-08-10T16:03:47.354Z,20.10
2017-08-10T16:06:16.350Z,19.73
2017-08-10T16:08:45.350Z,19.93
2017-08-10T16:11:13.375Z,18.50
2017-08-10T16:13:43.295Z,20.10
2017-08-10T16:16:11.330Z,17.37
2017-08-10T16:18:39.363Z,17.30
2017-08-10T16:21:07.390Z,19.30
2017-08-10T16:23:35.426Z,16.17
2017-08-10T16:26:04.399Z,16.20
2017-08-10T16:28:33.388Z,14.00
2017-08-10T16:31:01.418Z,11.50
2017-08-10T16:33:30.454Z,2.47
2017-08-10T16:35:58.475Z,0.20
2017-08-10T16:38:27.414Z,0.20
2017-08-10T16:40:55.434Z,0.30
2017-08-10T16:43:23.450Z,0.20
2017-08-10T16:45:51.474Z,0.30
2017-08-10T16:48:19.494Z,0.30
2017-08-10T16:50:50.847Z,0.30
2017-08-10T16:53:18.850Z,0.30
2017-08-10T16:55:46.882Z,0.30
2017-08-10T16:58:16.902Z,0.30
2017-08-10T17:00:46.897Z,0.20
2017-08-10T17:03:15.898Z,0.20
2017-08-10T17:05:44.894Z,0.30
2017-08-10T17:08:12.918Z,0.20
2017-08-10T17:10:40.938Z,0.20
2017-08-10T17:13:10.954Z,0.30
2017-08-10T17:15:38.969Z,0.30
2017-08-10T17:18:06.978Z,0.30
2017-08-10T17:20:35.994Z,0.30
2017-08-10T17:23:04.010Z,0.20
2017-08-10T17:25:32.946Z,0.30
2017-08-10T17:28:01.970Z,0.30
2017-08-10T17:30:31.746Z,0.20
2017-08-10T17:32:59.762Z,0.30
2017-08-10T17:35:27.790Z,0.30
2017-08-10T17:37:55.813Z,0.20
2017-08-10T17:40:23.822Z,0.30
2017-08-10T17:42:51.861Z,0.30
2017-08-10T17:45:19.882Z,0.20
2017-08-10T17:47:48.858Z,0.20
2017-08-10T17:50:16.877Z,0.30
2017-08-10T17:52:45.813Z,0.23
2017-08-10T17:55:14.813Z,0.30
2017-08-10T17:57:42.857Z,0.30
2017-08-10T18:00:10.922Z,0.27
2017-08-10T18:02:38.945Z,0.20
2017-08-10T18:05:08.773Z,0.30
2017-08-10T18:07:36.838Z,0.30
2017-08-10T18:10:07.553Z,0.20
2017-08-10T18:12:37.565Z,0.30
2017-08-10T18:15:05.596Z,0.30
2017-08-10T18:17:33.645Z,0.30
2017-08-10T18:20:01.677Z,0.30
2017-08-10T18:22:30.473Z,0.30
2017-08-10T18:25:00.277Z,0.20
2017-08-10T18:27:29.097Z,0.30
2017-08-10T18:29:57.153Z,0.20
2017-08-10T18:32:27.833Z,0.30
2017-08-10T18:34:55.877Z,0.30
2017-08-10T18:37:24.821Z,0.20
2017-08-10T18:39:53.801Z,0.30
2017-08-10T18:42:21.833Z,0.30
2017-08-10T18:44:50.761Z,0.20
2017-08-10T18:47:18.789Z,0.30
2017-08-10T18:49:47.748Z,0.20
2017-08-10T18:52:15.773Z,0.20
2017-08-10T18:54:44.793Z,0.30
2017-08-10T18:57:12.821Z,0.20
2017-08-10T18:59:42.792Z,0.20
2017-08-10T19:02:10.808Z,0.40
2017-08-10T19:04:38.859Z,0.20
2017-08-10T19:07:13.272Z,0.30
2017-08-10T19:09:43.201Z,0.20
2017-08-10T19:12:11.241Z,0.20
2017-08-10T19:14:40.516Z,0.30
2017-08-10T19:17:08.520Z,0.30
2017-08-10T19:19:37.312Z,0.30
2017-08-10T19:22:05.364Z,0.20
2017-08-10T19:24:36.092Z,0.30
2017-08-10T19:27:04.120Z,0.27
2017-08-10T19:29:32.150Z,0.20
2017-08-10T19:32:01.949Z,0.20
2017-08-10T19:34:29.968Z,0.20
2017-08-10T19:36:58.009Z,0.30
2017-08-10T19:39:26.804Z,0.20
2017-08-10T19:41:54.844Z,0.20
2017-08-10T19:44:22.987Z,0.20
2017-08-10T19:46:51.025Z,0.20
2017-08-10T19:49:19.052Z,0.20
2017-08-10T19:51:47.080Z,0.20
2017-08-10T19:54:15.112Z,0.20
2017-08-10T19:56:44.800Z,0.20
2017-08-10T19:59:12.838Z,0.20
2017-08-10T20:01:41.791Z,0.20
2017-08-10T20:04:09.808Z,0.20
2017-08-10T20:06:37.836Z,0.30
2017-08-10T20:09:05.872Z,0.20
2017-08-10T20:11:33.932Z,0.20
2017-08-10T20:14:01.972Z,0.20
2017-08-10T20:16:30.020Z,0.50
2017-08-10T20:18:58.967Z,0.30
2017-08-10T20:21:31.356Z,0.23
2017-08-10T20:23:59.384Z,0.20
2017-08-10T20:26:27.420Z,0.20
2017-08-10T20:28:55.460Z,0.30
2017-08-10T20:31:23.531Z,0.30
2017-08-10T20:33:51.532Z,0.30
2017-08-10T20:36:21.524Z,0.20
2017-08-10T20:38:50.316Z,0.20
2017-08-10T20:41:21.011Z,0.20
2017-08-10T20:43:49.035Z,0.20
2017-08-10T20:46:17.075Z,0.20
2017-08-10T20:48:45.103Z,0.20
2017-08-10T20:51:15.059Z,0.30
2017-08-10T20:53:43.092Z,0.20
2017-08-10T20:56:12.123Z,0.20
2017-08-10T20:58:40.151Z,0.20
2017-08-10T21:01:09.191Z,0.20
2017-08-10T21:03:38.003Z,0.63
2017-08-10T21:06:06.051Z,0.70
2017-08-10T21:08:34.843Z,0.20
2017-08-10T21:11:05.571Z,0.30
2017-08-10T21:13:34.549Z,0.23
2017-08-10T21:16:03.547Z,0.27
2017-08-10T21:18:31.583Z,0.20
2017-08-10T21:21:00.603Z,0.30
2017-08-10T21:23:30.623Z,0.20
2017-08-10T21:25:58.663Z,0.20
2017-08-10T21:28:27.707Z,0.20
2017-08-10T21:30:58.431Z,0.30
2017-08-10T21:33:26.457Z,0.30
2017-08-10T21:35:56.507Z,0.30
2017-08-10T21:38:24.538Z,0.30
2017-08-10T21:40:52.559Z,0.30
2017-08-10T21:43:22.347Z,0.30
2017-08-10T21:45:51.343Z,0.30
2017-08-10T21:48:19.363Z,0.30
2017-08-10T21:50:47.383Z,0.20
2017-08-10T21:53:19.043Z,0.30
2017-08-10T21:55:49.055Z,0.30
2017-08-10T21:58:20.214Z,0.30
2017-08-10T22:00:50.998Z,0.30
2017-08-10T22:03:18.986Z,0.20
2017-08-10T22:05:47.030Z,0.20
2017-08-10T22:08:15.047Z,0.20
2017-08-10T22:10:43.078Z,0.20
2017-08-10T22:13:12.127Z,0.30
2017-08-10T22:15:42.830Z,0.30
2017-08-10T22:18:10.858Z,0.30
2017-08-10T22:20:43.111Z,0.30
2017-08-10T22:23:11.147Z,0.30
2017-08-10T22:25:39.171Z,0.30
2017-08-10T22:28:08.239Z,0.20
2017-08-10T22:30:38.946Z,0.30
2017-08-10T22:33:06.967Z,0.30
2017-08-10T22:35:34.998Z,0.27
2017-08-10T22:38:03.794Z,0.20
2017-08-10T22:40:33.575Z,0.20
2017-08-10T22:43:02.602Z,0.20
2017-08-10T22:45:30.626Z,0.20
2017-08-10T22:47:58.654Z,0.30
2017-08-10T22:50:27.638Z,0.30
2017-08-10T22:52:57.434Z,0.30
2017-08-10T22:55:26.238Z,0.30
2017-08-10T22:57:55.222Z,0.20
2017-08-10T23:00:23.242Z,0.30
2017-08-10T23:02:51.265Z,1.80
2017-08-10T23:05:20.282Z,0.27
2017-08-10T23:07:48.293Z,0.40
2017-08-10T23:10:16.315Z,0.30
2017-08-10T23:12:48.950Z,0.30
2017-08-10T23:15:17.879Z,0.20
2017-08-10T23:17:47.794Z,0.20
2017-08-10T23:20:15.843Z,0.20
2017-08-10T23:22:46.562Z,0.20
2017-08-10T23:25:15.555Z,0.20
2017-08-10T23:27:45.478Z,0.30
2017-08-10T23:30:17.318Z,0.20
2017-08-10T23:32:45.366Z,0.30
2017-08-10T23:35:14.374Z,0.20
2017-08-10T23:37:43.378Z,0.67
2017-08-10T23:40:11.406Z,0.30
2017-08-10T23:42:41.374Z,0.30
2017-08-10T23:45:09.402Z,0.20
2017-08-10T23:47:37.470Z,0.30
2017-08-10T23:50:07.423Z,0.30
2017-08-10T23:52:35.441Z,0.30
2017-08-10T23:55:03.498Z,0.30
2017-08-10T23:57:33.385Z,0.20
